createdAt,value
2019-01-30T00:03:10.632Z,99.90
2019-01-30T00:05:37.423Z,99.90
2019-01-30T00:08:04.380Z,99.90
2019-01-30T00:10:31.038Z,99.90
2019-01-30T00:12:58.098Z,99.90
2019-01-30T00:15:25.574Z,99.90
2019-01-30T00:17:52.759Z,99.90
2019-01-30T00:20:19.503Z,99.90
2019-01-30T00:22:46.164Z,99.90
2019-01-30T00:25:14.684Z,99.90
2019-01-30T00:27:41.783Z,99.90
2019-01-30T00:30:17.955Z,99.90
2019-01-30T00:32:44.806Z,99.90
2019-01-30T00:35:11.812Z,99.90
2019-01-30T00:37:41.325Z,99.90
2019-01-30T00:40:11.142Z,99.90
2019-01-30T00:43:05.186Z,99.90
2019-01-30T00:45:34.454Z,99.90
2019-01-30T00:48:19.575Z,99.90
2019-01-30T00:50:46.218Z,99.90
2019-01-30T00:53:12.977Z,99.90
2019-01-30T00:55:39.657Z,99.90
2019-01-30T00:58:06.381Z,99.90
2019-01-30T01:00:33.562Z,99.90
2019-01-30T01:03:06.278Z,99.90
2019-01-30T01:05:50.712Z,99.90
2019-01-30T01:08:17.425Z,99.90
2019-01-30T01:10:44.302Z,99.90
2019-01-30T01:13:11.015Z,99.90
2019-01-30T01:15:41.312Z,99.90
2019-01-30T01:18:23.461Z,99.90
2019-01-30T01:20:50.433Z,99.90
2019-01-30T01:23:17.192Z,99.90
2019-01-30T01:25:43.912Z,99.90
2019-01-30T01:28:10.676Z,99.90
2019-01-30T01:30:37.456Z,99.90
2019-01-30T01:33:04.546Z,99.90
2019-01-30T01:36:22.268Z,99.90
2019-01-30T01:38:40.188Z,99.90
2019-01-30T01:41:06.864Z,99.90
2019-01-30T01:43:33.538Z,99.90
2019-01-30T01:46:00.310Z,99.90
2019-01-30T01:48:35.105Z,99.90
2019-01-30T01:51:01.771Z,99.90
2019-01-30T01:53:28.518Z,99.90
2019-01-30T01:55:55.253Z,99.90
2019-01-30T01:58:33.603Z,99.90
2019-01-30T02:00:57.931Z,99.90
2019-01-30T02:03:26.635Z,99.90
2019-01-30T02:05:53.284Z,99.90
2019-01-30T02:08:20.087Z,99.90
2019-01-30T02:10:47.039Z,99.90
2019-01-30T02:13:21.220Z,99.90
2019-01-30T02:15:53.921Z,99.90
2019-01-30T02:18:20.671Z,99.90
2019-01-30T02:20:47.941Z,99.90
2019-01-30T02:23:14.754Z,99.90
2019-01-30T02:25:46.568Z,99.90
2019-01-30T02:28:16.368Z,99.90
2019-01-30T02:30:47.829Z,99.90
2019-01-30T02:33:15.378Z,99.90
2019-01-30T02:35:44.744Z,99.90
2019-01-30T02:38:11.420Z,99.90
2019-01-30T02:40:38.130Z,99.90
2019-01-30T02:43:05.288Z,99.90
2019-01-30T02:45:32.122Z,99.90
2019-01-30T02:48:12.618Z,99.90
2019-01-30T02:50:39.792Z,99.90
2019-01-30T02:53:12.095Z,99.90
2019-01-30T02:55:40.692Z,99.90
2019-01-30T02:58:11.912Z,99.90
2019-01-30T03:00:38.679Z,99.90
2019-01-30T03:03:05.455Z,99.90
2019-01-30T03:05:32.557Z,99.90
2019-01-30T03:07:59.345Z,99.90
2019-01-30T03:10:26.049Z,99.90
2019-01-30T03:12:53.048Z,99.90
2019-01-30T03:15:47.077Z,99.90
2019-01-30T03:18:27.121Z,99.90
2019-01-30T03:21:06.955Z,99.90
2019-01-30T03:23:50.692Z,99.90
2019-01-30T03:26:17.435Z,99.90
2019-01-30T03:28:49.903Z,99.90
2019-01-30T03:31:36.111Z,99.90
2019-01-30T03:34:22.364Z,99.90
2019-01-30T03:36:49.246Z,99.90
2019-01-30T03:39:15.954Z,99.90
2019-01-30T03:41:42.820Z,99.90
2019-01-30T03:44:09.657Z,99.90
2019-01-30T03:46:36.439Z,99.90
2019-01-30T03:49:03.333Z,99.90
2019-01-30T03:51:30.642Z,99.90
2019-01-30T03:56:51.246Z,99.90
2019-01-30T03:59:17.941Z,99.90
2019-01-30T04:01:44.645Z,99.90
2019-01-30T04:04:37.578Z,99.90
2019-01-30T04:09:59.667Z,99.90
2019-01-30T04:12:26.614Z,99.90
2019-01-30T04:14:53.309Z,99.90
2019-01-30T04:17:35.620Z,99.90
2019-01-30T04:20:04.028Z,99.90
2019-01-30T04:22:36.015Z,99.90
2019-01-30T04:28:46.311Z,99.90
2019-01-30T04:31:53.414Z,99.90
2019-01-30T04:34:22.692Z,99.90
2019-01-30T04:37:09.817Z,99.90
2019-01-30T04:39:57.935Z,99.90
2019-01-30T04:42:26.588Z,99.90
2019-01-30T04:44:53.954Z,99.90
2019-01-30T04:47:32.975Z,99.90
2019-01-30T04:49:57.536Z,99.90
2019-01-30T04:52:24.325Z,99.90
2019-01-30T04:54:50.986Z,99.90
2019-01-30T04:57:24.210Z,99.90
2019-01-30T04:59:52.622Z,99.90
2019-01-30T05:02:43.309Z,99.90
2019-01-30T05:08:15.640Z,99.90
2019-01-30T05:10:44.242Z,99.90
2019-01-30T05:13:11.122Z,99.90
2019-01-30T05:16:17.339Z,99.90
2019-01-30T05:18:23.328Z,99.90
2019-01-30T05:20:50.407Z,99.90
2019-01-30T05:23:17.601Z,99.90
2019-01-30T05:25:44.329Z,99.90
2019-01-30T05:28:11.037Z,99.90
2019-01-30T05:30:40.025Z,99.90
2019-01-30T05:33:20.735Z,99.90
2019-01-30T05:35:47.474Z,99.90
2019-01-30T05:38:14.174Z,99.90
2019-01-30T05:40:40.958Z,99.90
2019-01-30T05:43:07.703Z,99.90
2019-01-30T05:45:34.403Z,99.90
2019-01-30T05:48:27.158Z,99.90
2019-01-30T05:50:55.508Z,99.90
2019-01-30T05:53:52.203Z,99.90
2019-01-30T05:56:46.259Z,99.90
2019-01-30T05:59:54.354Z,99.90
2019-01-30T06:02:24.137Z,99.90
2019-01-30T06:04:56.860Z,99.90
2019-01-30T06:07:25.603Z,99.90
2019-01-30T06:09:52.280Z,99.90
2019-01-30T06:12:22.132Z,99.90
2019-01-30T06:14:56.712Z,99.90
2019-01-30T06:17:44.666Z,99.90
2019-01-30T06:20:38.274Z,99.90
2019-01-30T06:23:05.394Z,99.90
2019-01-30T06:25:49.095Z,99.90
2019-01-30T06:31:19.702Z,99.80
2019-01-30T06:36:58.556Z,99.90
2019-01-30T06:39:23.154Z,99.80
2019-01-30T06:48:12.934Z,98.90
2019-01-30T06:50:39.865Z,98.30
2019-01-30T06:53:06.584Z,98.30
2019-01-30T07:01:25.152Z,98.40
2019-01-30T07:04:09.756Z,98.50
2019-01-30T07:06:42.561Z,98.70
2019-01-30T07:09:11.822Z,98.50
2019-01-30T07:12:00.560Z,98.30
2019-01-30T07:14:24.749Z,98.70
2019-01-30T07:16:53.346Z,98.50
2019-01-30T07:19:20.051Z,98.90
2019-01-30T07:21:49.789Z,99.20
2019-01-30T07:24:16.541Z,99.30
2019-01-30T07:26:46.257Z,98.90
2019-01-30T07:35:06.326Z,98.60
2019-01-30T07:37:52.478Z,98.80
2019-01-30T07:40:20.953Z,98.60
2019-01-30T07:42:47.658Z,98.20
2019-01-30T07:45:51.999Z,97.90
2019-01-30T07:48:20.880Z,97.70
2019-01-30T07:50:47.650Z,97.80
2019-01-30T07:56:41.872Z,98.80
2019-01-30T08:05:54.901Z,99.00
2019-01-30T08:08:19.783Z,99.30
2019-01-30T08:10:55.328Z,99.00
2019-01-30T08:16:43.703Z,99.20
2019-01-30T08:17:14.436Z,99.30
2019-01-30T08:19:36.149Z,99.00
2019-01-30T08:22:25.241Z,98.80
2019-01-30T08:24:53.918Z,98.80
2019-01-30T08:31:04.819Z,98.80
2019-01-30T08:33:24.406Z,99.10
2019-01-30T08:35:51.384Z,99.20
2019-01-30T08:38:20.227Z,99.70
2019-01-30T08:40:47.783Z,99.70
2019-01-30T08:43:14.527Z,99.90
2019-01-30T08:45:44.033Z,99.80
2019-01-30T08:48:12.593Z,99.60
2019-01-30T08:50:41.104Z,99.90
2019-01-30T08:53:07.838Z,99.90
2019-01-30T08:55:34.561Z,99.90
2019-01-30T08:58:03.201Z,99.90
2019-01-30T09:00:44.018Z,99.90
2019-01-30T09:05:56.091Z,99.90
2019-01-30T09:08:23.333Z,99.90
2019-01-30T09:10:51.985Z,99.90
2019-01-30T09:13:18.769Z,99.90
2019-01-30T09:15:45.663Z,99.90
2019-01-30T09:18:38.694Z,99.90
2019-01-30T09:27:32.462Z,99.90
2019-01-30T09:32:59.824Z,99.90
2019-01-30T09:36:02.610Z,99.90
2019-01-30T09:38:11.523Z,99.90
2019-01-30T09:40:52.954Z,99.90
2019-01-30T09:43:47.193Z,99.90
2019-01-30T09:49:25.382Z,99.90
2019-01-30T09:52:37.173Z,99.90
2019-01-30T09:58:11.594Z,99.90
2019-01-30T10:01:01.155Z,99.90
2019-01-30T10:03:36.911Z,99.90
2019-01-30T10:06:24.880Z,99.90
2019-01-30T10:09:14.375Z,99.90
2019-01-30T10:11:41.294Z,99.90
2019-01-30T10:14:17.089Z,99.90
2019-01-30T10:16:44.269Z,99.90
2019-01-30T10:19:11.365Z,99.90
2019-01-30T10:21:38.117Z,99.90
2019-01-30T10:24:04.903Z,99.90
2019-01-30T10:29:35.019Z,99.90
2019-01-30T10:32:01.662Z,99.90
2019-01-30T10:34:28.741Z,99.90
2019-01-30T10:37:17.209Z,99.90
2019-01-30T10:40:13.670Z,99.90
2019-01-30T10:42:47.456Z,99.90
2019-01-30T10:46:09.736Z,99.90
2019-01-30T10:48:08.188Z,99.90
2019-01-30T10:50:34.881Z,99.90
2019-01-30T10:55:55.062Z,99.90
2019-01-30T10:58:24.502Z,99.90
2019-01-30T11:00:51.246Z,99.90
2019-01-30T11:03:18.123Z,99.90
2019-01-30T11:05:47.414Z,99.90
2019-01-30T11:08:17.059Z,99.90
2019-01-30T11:10:43.827Z,99.90
2019-01-30T11:13:12.472Z,99.90
2019-01-30T11:15:48.432Z,99.90
2019-01-30T11:18:16.250Z,99.90
2019-01-30T11:20:46.095Z,99.90
2019-01-30T11:26:22.270Z,99.90
2019-01-30T11:28:49.191Z,99.90
2019-01-30T11:31:16.165Z,99.90
2019-01-30T11:34:17.210Z,99.90
2019-01-30T11:36:48.479Z,99.90
2019-01-30T11:42:19.366Z,99.90
2019-01-30T11:44:59.740Z,99.90
2019-01-30T11:47:45.254Z,99.90
2019-01-30T11:50:18.243Z,99.90
2019-01-30T11:52:48.857Z,99.90
2019-01-30T11:55:17.519Z,99.90
2019-01-30T11:57:46.694Z,99.90
2019-01-30T12:00:38.268Z,99.90
2019-01-30T12:03:30.900Z,99.90
2019-01-30T12:06:04.153Z,99.90
2019-01-30T12:08:32.270Z,99.90
2019-01-30T12:10:59.210Z,99.90
2019-01-30T12:13:43.095Z,99.90
2019-01-30T12:16:23.747Z,99.90
2019-01-30T12:18:50.863Z,99.90
2019-01-30T12:24:06.319Z,99.90
2019-01-30T12:27:09.070Z,99.90
2019-01-30T12:30:17.951Z,99.90
2019-01-30T12:32:34.557Z,99.90
2019-01-30T12:35:11.568Z,99.90
2019-01-30T12:37:42.130Z,99.90
2019-01-30T12:49:49.989Z,99.90
2019-01-30T12:52:16.781Z,99.90
2019-01-30T12:54:47.963Z,99.90
2019-01-30T12:58:42.460Z,99.90
2019-01-30T13:00:16.469Z,99.90
2019-01-30T13:02:55.839Z,99.90
2019-01-30T13:05:44.863Z,99.90
2019-01-30T13:08:12.398Z,99.90
2019-01-30T13:10:58.055Z,99.90
2019-01-30T13:13:35.616Z,99.90
2019-01-30T13:16:07.482Z,99.90
2019-01-30T13:18:49.156Z,99.90
2019-01-30T13:21:16.116Z,99.90
2019-01-30T13:23:42.965Z,99.90
2019-01-30T13:26:09.725Z,99.90
2019-01-30T13:28:36.462Z,99.90
2019-01-30T13:31:03.689Z,99.90
2019-01-30T13:33:30.433Z,99.90
2019-01-30T13:35:57.146Z,99.90
2019-01-30T13:38:25.733Z,99.90
2019-01-30T13:40:52.696Z,99.90
2019-01-30T13:43:19.412Z,99.90
2019-01-30T13:46:05.044Z,99.90
2019-01-30T13:48:35.054Z,99.90
2019-01-30T13:54:23.910Z,99.90
2019-01-30T13:57:17.996Z,99.90
2019-01-30T14:00:00.355Z,99.90
2019-01-30T14:03:04.960Z,99.90
2019-01-30T14:05:00.247Z,99.90
2019-01-30T14:07:36.233Z,99.90
2019-01-30T14:10:14.483Z,99.90
2019-01-30T14:12:52.065Z,99.90
2019-01-30T14:15:40.142Z,99.90
2019-01-30T14:18:26.373Z,99.90
2019-01-30T14:20:58.265Z,99.90
2019-01-30T14:23:30.039Z,99.90
2019-01-30T14:26:15.644Z,99.90
2019-01-30T14:32:03.502Z,99.90
2019-01-30T14:35:41.177Z,99.90
2019-01-30T14:54:17.540Z,99.90
2019-01-30T14:56:44.007Z,99.90
2019-01-30T14:59:10.450Z,99.90
2019-01-30T15:01:37.163Z,99.90
2019-01-30T15:04:03.599Z,99.90
2019-01-30T15:06:30.026Z,99.90
2019-01-30T15:08:56.688Z,99.90
2019-01-30T15:11:23.133Z,99.90
2019-01-30T15:13:49.605Z,99.90
2019-01-30T15:16:16.082Z,99.90
2019-01-30T15:18:42.677Z,99.90
2019-01-30T15:21:09.134Z,99.90
2019-01-30T15:23:35.575Z,99.90
2019-01-30T15:26:02.036Z,99.90
2019-01-30T15:28:28.484Z,99.90
2019-01-30T15:30:54.958Z,99.90
2019-01-30T15:33:21.556Z,99.90
2019-01-30T15:35:48.009Z,99.90
2019-01-30T15:38:14.467Z,99.90
2019-01-30T15:40:41.022Z,99.90
2019-01-30T15:43:07.501Z,99.90
2019-01-30T15:45:33.950Z,99.90
2019-01-30T15:48:00.411Z,99.90
2019-01-30T15:50:29.321Z,99.90
2019-01-30T15:52:56.477Z,99.90
2019-01-30T15:55:23.049Z,99.90
2019-01-30T15:57:52.737Z,99.90
2019-01-30T16:00:36.564Z,99.90
2019-01-30T16:03:03.513Z,99.90
2019-01-30T16:05:30.078Z,99.90
2019-01-30T16:07:56.546Z,99.90
2019-01-30T16:10:23.010Z,99.90
2019-01-30T16:12:49.462Z,99.90
2019-01-30T16:15:22.273Z,99.90
2019-01-30T16:17:48.862Z,99.90
2019-01-30T16:20:15.327Z,99.90
2019-01-30T16:22:41.775Z,99.90
2019-01-30T16:25:09.941Z,99.90
2019-01-30T16:27:36.389Z,99.90
2019-01-30T16:30:09.401Z,99.90
2019-01-30T16:32:35.850Z,99.90
2019-01-30T16:35:05.746Z,99.90
2019-01-30T16:37:32.198Z,99.90
2019-01-30T16:39:58.597Z,99.90
2019-01-30T16:42:25.050Z,99.90
2019-01-30T16:44:51.511Z,99.90
2019-01-30T16:47:18.138Z,99.90
2019-01-30T16:49:44.603Z,99.90
2019-01-30T16:52:11.094Z,99.90
2019-01-30T16:54:37.600Z,99.90
2019-01-30T16:57:04.066Z,99.90
2019-01-30T16:59:30.690Z,99.90
2019-01-30T17:01:57.270Z,99.90
2019-01-30T17:04:23.660Z,99.90
2019-01-30T17:06:50.110Z,99.90
2019-01-30T17:09:16.579Z,99.90
2019-01-30T17:11:43.161Z,99.90
2019-01-30T17:14:09.602Z,99.90
2019-01-30T17:16:36.113Z,99.90
2019-01-30T17:19:02.586Z,99.90
2019-01-30T17:21:29.038Z,99.90
2019-01-30T17:23:57.175Z,99.90
2019-01-30T17:26:23.717Z,99.90
2019-01-30T17:28:50.166Z,99.90
2019-01-30T17:31:16.738Z,99.90
2019-01-30T17:33:43.208Z,99.90
2019-01-30T17:36:18.218Z,99.90
2019-01-30T17:38:38.103Z,99.90
2019-01-30T17:41:05.185Z,99.90
2019-01-30T17:43:31.642Z,99.90
2019-01-30T17:45:58.125Z,99.90
2019-01-30T17:48:24.630Z,99.90
2019-01-30T17:50:51.085Z,99.90
2019-01-30T17:53:17.536Z,99.90
2019-01-30T17:55:43.997Z,99.90
2019-01-30T17:58:10.599Z,99.90
2019-01-30T18:00:41.452Z,99.90
2019-01-30T18:03:07.902Z,99.90
2019-01-30T18:05:34.390Z,99.90
2019-01-30T18:08:00.877Z,99.90
2019-01-30T18:10:27.370Z,99.90
2019-01-30T18:12:54.129Z,99.90
2019-01-30T18:15:20.774Z,99.90
2019-01-30T18:17:47.241Z,99.90
2019-01-30T18:20:16.630Z,99.90
2019-01-30T18:22:44.550Z,99.90
2019-01-30T18:25:15.606Z,99.90
2019-01-30T18:27:42.061Z,99.90
2019-01-30T18:30:11.906Z,99.90
2019-01-30T18:32:38.398Z,99.90
2019-01-30T18:35:05.553Z,99.90
2019-01-30T18:37:32.423Z,99.90
2019-01-30T18:39:58.886Z,99.90
2019-01-30T18:42:25.338Z,99.90
2019-01-30T18:44:51.806Z,99.90
2019-01-30T18:47:18.277Z,99.90
2019-01-30T18:49:44.776Z,99.90
2019-01-30T18:52:11.237Z,99.90
2019-01-30T18:54:37.714Z,99.90
2019-01-30T18:57:04.250Z,99.90
2019-01-30T18:59:30.631Z,99.90
2019-01-30T19:01:57.089Z,99.90
2019-01-30T19:04:23.597Z,99.90
2019-01-30T19:06:52.581Z,99.90
2019-01-30T19:09:18.128Z,99.90
2019-01-30T19:11:44.614Z,99.90
2019-01-30T19:14:11.247Z,99.90
2019-01-30T19:16:37.721Z,99.90
2019-01-30T19:19:04.378Z,99.90
2019-01-30T19:21:30.862Z,99.90
2019-01-30T19:23:57.210Z,99.90
2019-01-30T19:26:23.664Z,99.90
2019-01-30T19:28:50.121Z,99.90
2019-01-30T19:31:16.622Z,99.90
2019-01-30T19:33:43.098Z,99.90
2019-01-30T19:36:09.571Z,99.90
2019-01-30T19:38:36.742Z,99.90
2019-01-30T19:41:03.207Z,99.90
2019-01-30T19:43:29.590Z,99.90
2019-01-30T19:45:56.039Z,99.90
2019-01-30T19:48:22.570Z,99.90
2019-01-30T19:50:48.928Z,99.90
2019-01-30T19:53:15.484Z,99.90
2019-01-30T19:55:41.927Z,99.90
2019-01-30T19:58:08.497Z,99.90
2019-01-30T20:00:40.177Z,99.90
2019-01-30T20:03:09.667Z,99.90
2019-01-30T20:05:36.175Z,99.90
2019-01-30T20:08:02.957Z,99.90
2019-01-30T20:10:31.808Z,99.90
2019-01-30T20:12:58.276Z,99.90
2019-01-30T20:15:25.122Z,99.90
2019-01-30T20:17:51.575Z,99.90
2019-01-30T20:20:20.936Z,99.90
2019-01-30T20:22:46.442Z,99.90
2019-01-30T20:25:16.205Z,99.90
2019-01-30T20:27:42.773Z,99.90
2019-01-30T20:30:12.630Z,99.90
2019-01-30T20:32:39.353Z,99.90
2019-01-30T20:35:06.738Z,99.90
2019-01-30T20:37:33.206Z,99.90
2019-01-30T20:39:59.699Z,99.90
2019-01-30T20:42:26.172Z,99.90
2019-01-30T20:44:52.526Z,99.90
2019-01-30T20:47:19.025Z,99.90
2019-01-30T20:49:45.481Z,99.90
2019-01-30T20:52:11.990Z,99.90
2019-01-30T20:54:38.458Z,99.90
2019-01-30T20:57:05.161Z,99.90
2019-01-30T20:59:31.632Z,99.90
2019-01-30T21:01:58.108Z,99.90
2019-01-30T21:04:24.570Z,99.90
2019-01-30T21:06:51.027Z,99.90
2019-01-30T21:09:17.602Z,99.90
2019-01-30T21:11:44.077Z,99.90
2019-01-30T21:14:10.542Z,99.90
2019-01-30T21:16:37.154Z,99.90
2019-01-30T21:19:03.723Z,99.90
2019-01-30T21:21:30.178Z,99.90
2019-01-30T21:23:56.658Z,99.90
2019-01-30T21:26:23.288Z,99.90
2019-01-30T21:28:49.747Z,99.90
2019-01-30T21:31:16.364Z,99.90
2019-01-30T21:33:42.856Z,99.90
2019-01-30T21:36:09.473Z,99.90
2019-01-30T21:38:35.984Z,99.90
2019-01-30T21:41:02.850Z,99.90
2019-01-30T21:43:29.624Z,99.90
2019-01-30T21:45:56.179Z,99.90
2019-01-30T21:48:22.651Z,99.90
2019-01-30T21:50:49.148Z,99.90
2019-01-30T21:53:15.625Z,99.90
2019-01-30T21:55:42.103Z,99.90
2019-01-30T21:58:08.632Z,99.90
2019-01-30T22:00:35.186Z,99.90
2019-01-30T22:03:01.697Z,99.90
2019-01-30T22:05:28.109Z,99.90
2019-01-30T22:08:00.993Z,99.90
2019-01-30T22:10:25.387Z,99.90
2019-01-30T22:12:52.052Z,99.90
2019-01-30T22:15:18.729Z,99.90
2019-01-30T22:17:45.298Z,99.90
2019-01-30T22:20:17.586Z,99.90
2019-01-30T22:22:44.064Z,99.90
2019-01-30T22:25:19.933Z,99.90
2019-01-30T22:27:41.419Z,99.90
2019-01-30T22:30:11.523Z,99.90
2019-01-30T22:32:38.028Z,99.90
2019-01-30T22:35:07.278Z,99.90
2019-01-30T22:37:33.730Z,99.90
2019-01-30T22:40:00.323Z,99.90
2019-01-30T22:42:26.840Z,99.90
2019-01-30T22:44:53.226Z,99.90
2019-01-30T22:47:19.885Z,99.90
2019-01-30T22:49:46.351Z,99.90
2019-01-30T22:52:12.828Z,99.90
2019-01-30T22:54:39.286Z,99.90
2019-01-30T22:57:05.773Z,99.90
2019-01-30T22:59:32.217Z,99.90
2019-01-30T23:01:58.737Z,99.90
2019-01-30T23:04:31.681Z,99.90
2019-01-30T23:07:01.837Z,99.90
2019-01-30T23:09:51.590Z,99.90
2019-01-30T23:12:30.459Z,99.90
2019-01-30T23:15:26.321Z,99.90
2019-01-30T23:18:26.538Z,99.90
2019-01-30T23:20:56.616Z,99.90
2019-01-30T23:23:29.422Z,99.90
2019-01-30T23:26:06.499Z,99.90
2019-01-30T23:28:54.613Z,99.90
2019-01-30T23:31:39.600Z,99.90
2019-01-30T23:34:33.663Z,99.90
2019-01-30T23:37:12.949Z,99.90
2019-01-30T23:39:58.068Z,99.90
2019-01-30T23:42:50.649Z,99.90
2019-01-30T23:45:37.129Z,99.90
2019-01-30T23:48:15.954Z,99.90
2019-01-30T23:50:52.010Z,99.90
2019-01-30T23:53:40.423Z,99.90
2019-01-30T23:56:26.227Z,99.90
2019-01-30T23:58:59.387Z,99.90
